createdAt,value
2022-11-28T00:01:41.790Z,102098.53
2022-11-28T00:04:10.068Z,102103.25
2022-11-28T00:06:47.030Z,102097.91
2022-11-28T00:09:15.814Z,102103.44
2022-11-28T00:11:45.965Z,102103.75
2022-11-28T00:14:13.936Z,102096.84
2022-11-28T00:16:40.980Z,102095.06
2022-11-28T00:19:08.805Z,102091.28
2022-11-28T00:21:36.106Z,102085.13
2022-11-28T00:24:03.735Z,102092.00
2022-11-28T00:26:35.213Z,102093.22
2022-11-28T00:29:06.139Z,102098.88
2022-11-28T00:31:42.248Z,102097.91
2022-11-28T00:34:12.949Z,102093.72
2022-11-28T00:36:42.711Z,102099.25
2022-11-28T00:39:09.895Z,102081.09
2022-11-28T00:41:37.066Z,102083.47
2022-11-28T00:44:06.426Z,102084.06
2022-11-28T00:46:33.437Z,102084.19
2022-11-28T00:49:00.580Z,102088.53
2022-11-28T00:51:32.744Z,102089.88
2022-11-28T00:54:02.110Z,102081.84
2022-11-28T00:56:36.637Z,102085.72
2022-11-28T00:59:04.428Z,102078.47
2022-11-28T01:01:39.734Z,102077.75
2022-11-28T01:04:09.783Z,102068.19
2022-11-28T01:06:49.366Z,102071.44
2022-11-28T01:09:24.227Z,102060.66
2022-11-28T01:11:53.814Z,102060.31
2022-11-28T01:14:25.253Z,102050.63
2022-11-28T01:16:54.854Z,102055.06
2022-11-28T01:19:22.117Z,102056.47
2022-11-28T01:21:51.748Z,102050.97
2022-11-28T01:24:18.964Z,102053.50
2022-11-28T01:26:46.197Z,102051.97
2022-11-28T01:29:13.335Z,102041.34
2022-11-28T01:31:40.822Z,102046.81
2022-11-28T01:34:08.081Z,102046.25
2022-11-28T01:36:35.104Z,102042.63
2022-11-28T01:39:02.162Z,102039.06
2022-11-28T01:41:29.326Z,102041.91
2022-11-28T01:44:08.363Z,102038.81
2022-11-28T01:46:36.552Z,102033.47
2022-11-28T01:49:21.490Z,102040.19
2022-11-28T01:51:54.642Z,102041.28
2022-11-28T01:54:24.565Z,102039.50
2022-11-28T01:57:02.101Z,102036.22
2022-11-28T01:59:34.076Z,102027.00
2022-11-28T02:02:05.225Z,102028.88
2022-11-28T02:04:34.260Z,102025.81
2022-11-28T02:07:03.512Z,102030.75
2022-11-28T02:09:30.574Z,102025.53
2022-11-28T02:12:28.920Z,102026.25
2022-11-28T02:15:25.869Z,102030.38
2022-11-28T02:18:47.474Z,102023.22
2022-11-28T02:21:58.462Z,102023.00
2022-11-28T02:25:23.124Z,102013.31
2022-11-28T02:28:08.171Z,102016.88
2022-11-28T02:30:55.358Z,102014.13
2022-11-28T02:33:32.274Z,102013.72
2022-11-28T02:36:24.409Z,102012.66
2022-11-28T02:39:37.752Z,102016.31
2022-11-28T02:42:43.994Z,102014.56
2022-11-28T02:45:27.296Z,102014.78
2022-11-28T02:48:28.568Z,102007.75
2022-11-28T02:51:27.282Z,102003.22
2022-11-28T02:53:57.163Z,102017.84
2022-11-28T02:56:25.428Z,102010.91
2022-11-28T02:58:55.121Z,102007.75
2022-11-28T03:01:34.642Z,102009.63
2022-11-28T03:04:13.476Z,102005.53
2022-11-28T03:07:35.506Z,102004.88
2022-11-28T03:10:24.180Z,102015.25
2022-11-28T03:13:26.767Z,102010.66
2022-11-28T03:16:30.465Z,102005.28
2022-11-28T03:19:34.551Z,102007.53
2022-11-28T03:22:40.084Z,102007.66
2022-11-28T03:25:23.470Z,102000.63
2022-11-28T03:28:12.400Z,102002.06
2022-11-28T03:31:02.479Z,102007.38
2022-11-28T03:33:36.019Z,101998.53
2022-11-28T03:36:18.397Z,102003.72
2022-11-28T03:38:50.704Z,101998.03
2022-11-28T03:41:28.201Z,102002.44
2022-11-28T03:44:00.825Z,102004.41
2022-11-28T03:46:39.175Z,102006.09
2022-11-28T03:49:09.526Z,102005.16
2022-11-28T03:51:52.481Z,102007.50
2022-11-28T03:54:42.588Z,101996.97
2022-11-28T03:57:20.513Z,101993.78
2022-11-28T03:59:51.607Z,101994.56
2022-11-28T04:02:40.071Z,102001.09
2022-11-28T04:05:32.288Z,101999.97
2022-11-28T04:08:03.946Z,101993.53
2022-11-28T04:10:56.639Z,101999.72
2022-11-28T04:13:32.347Z,101998.97
2022-11-28T04:16:25.925Z,102005.09
2022-11-28T04:19:17.451Z,102000.50
2022-11-28T04:21:54.507Z,101995.66
2022-11-28T04:24:28.894Z,101991.34
2022-11-28T04:27:11.344Z,101991.75
2022-11-28T04:29:43.573Z,101988.34
2022-11-28T04:32:12.742Z,101988.69
2022-11-28T04:34:45.704Z,101994.16
2022-11-28T04:37:16.079Z,101984.44
2022-11-28T04:39:50.381Z,101983.75
2022-11-28T04:42:26.353Z,101982.72
2022-11-28T04:45:18.005Z,101978.69
2022-11-28T04:47:45.748Z,101984.06
2022-11-28T04:50:13.630Z,101979.03
2022-11-28T04:53:15.576Z,101982.75
2022-11-28T04:55:51.526Z,101982.75
2022-11-28T04:58:36.737Z,101977.56
2022-11-28T05:01:10.290Z,101980.50
2022-11-28T05:03:43.000Z,101974.91
2022-11-28T05:06:12.658Z,101980.97
2022-11-28T05:08:42.617Z,101982.63
2022-11-28T05:11:09.610Z,101981.72
2022-11-28T05:13:36.560Z,101988.78
2022-11-28T05:16:05.650Z,101980.34
2022-11-28T05:18:32.660Z,101984.66
2022-11-28T05:20:59.868Z,101975.69
2022-11-28T05:23:26.912Z,101977.16
2022-11-28T05:25:53.954Z,101981.44
2022-11-28T05:28:27.986Z,101973.16
2022-11-28T05:31:13.421Z,101981.53
2022-11-28T05:33:42.318Z,101976.06
2022-11-28T05:36:13.580Z,101969.31
2022-11-28T05:38:41.788Z,101958.50
2022-11-28T05:41:08.815Z,101961.22
2022-11-28T05:43:35.863Z,101950.63
2022-11-28T05:46:06.406Z,101957.84
2022-11-28T05:48:33.544Z,101954.47
2022-11-28T05:51:00.556Z,101954.47
2022-11-28T05:53:27.595Z,101944.16
2022-11-28T05:55:54.596Z,101951.72
2022-11-28T05:58:21.775Z,101953.59
2022-11-28T06:00:48.748Z,101954.22
2022-11-28T06:03:15.910Z,101964.69
2022-11-28T06:05:44.520Z,101968.47
2022-11-28T06:08:12.857Z,101965.00
2022-11-28T06:10:42.104Z,101967.72
2022-11-28T06:13:12.764Z,101955.28
2022-11-28T06:15:44.979Z,101952.75
2022-11-28T06:18:11.907Z,101943.91
2022-11-28T06:20:38.869Z,101948.03
2022-11-28T06:23:08.200Z,101942.81
2022-11-28T06:25:35.374Z,101945.75
2022-11-28T06:28:02.516Z,101949.41
2022-11-28T06:30:29.502Z,101950.56
2022-11-28T06:32:56.472Z,101950.16
2022-11-28T06:35:23.454Z,101946.09
2022-11-28T06:37:50.506Z,101937.81
2022-11-28T06:40:17.802Z,101941.78
2022-11-28T06:42:50.443Z,101943.78
2022-11-28T06:45:17.920Z,101955.09
2022-11-28T06:47:45.020Z,101949.13
2022-11-28T06:50:12.132Z,101952.44
2022-11-28T06:52:39.216Z,101941.88
2022-11-28T06:55:06.501Z,101945.41
2022-11-28T06:57:33.523Z,101945.53
2022-11-28T07:00:00.496Z,101949.53
2022-11-28T07:02:27.730Z,101942.63
2022-11-28T07:04:54.743Z,101942.53
2022-11-28T07:07:21.758Z,101938.97
2022-11-28T07:09:52.085Z,101934.78
2022-11-28T07:12:19.500Z,101939.06
2022-11-28T07:14:46.495Z,101932.38
2022-11-28T07:17:13.578Z,101923.38
2022-11-28T07:19:40.841Z,101936.53
2022-11-28T07:22:09.806Z,101932.19
2022-11-28T07:24:36.940Z,101930.81
2022-11-28T07:27:04.036Z,101928.81
2022-11-28T07:29:36.516Z,101931.06
2022-11-28T07:32:06.364Z,101921.22
2022-11-28T07:34:34.058Z,101928.16
2022-11-28T07:37:01.057Z,101925.81
2022-11-28T07:39:28.283Z,101921.13
2022-11-28T07:41:55.353Z,101924.59
2022-11-28T07:44:22.475Z,101917.09
2022-11-28T07:46:50.630Z,101911.09
2022-11-28T07:49:17.698Z,101921.41
2022-11-28T07:51:48.700Z,101916.56
2022-11-28T07:54:15.831Z,101911.09
2022-11-28T07:59:32.457Z,101909.91
2022-11-28T08:01:59.776Z,101898.50
2022-11-28T08:04:26.917Z,101902.59
2022-11-28T08:06:54.234Z,101899.84
2022-11-28T08:09:21.258Z,101911.06
2022-11-28T08:11:49.272Z,101908.31
2022-11-28T08:14:16.292Z,101900.47
2022-11-28T08:16:46.770Z,101900.53
2022-11-28T08:19:16.475Z,101897.75
2022-11-28T08:21:43.521Z,101905.66
2022-11-28T08:24:12.005Z,101904.22
2022-11-28T08:26:39.451Z,101899.06
2022-11-28T08:29:06.511Z,101903.66
2022-11-28T08:31:41.482Z,101894.22
2022-11-28T08:34:12.735Z,101901.03
2022-11-28T08:36:40.001Z,101906.28
2022-11-28T08:39:24.521Z,101896.91
2022-11-28T08:41:57.731Z,101890.47
2022-11-28T08:44:25.685Z,101897.88
2022-11-28T08:46:53.427Z,101899.53
2022-11-28T08:49:20.645Z,101891.28
2022-11-28T08:51:47.634Z,101901.00
2022-11-28T08:54:14.947Z,101901.00
2022-11-28T08:56:41.925Z,101896.63
2022-11-28T08:59:10.125Z,101904.56
2022-11-28T09:01:37.341Z,101894.13
2022-11-28T09:04:04.919Z,101900.97
2022-11-28T09:06:31.921Z,101902.13
2022-11-28T09:08:58.914Z,101899.31
2022-11-28T09:11:26.159Z,101898.25
2022-11-28T09:13:53.208Z,101894.34
2022-11-28T09:16:22.712Z,101901.78
2022-11-28T09:18:49.824Z,101894.59
2022-11-28T09:21:19.035Z,101893.81
2022-11-28T09:23:46.168Z,101902.44
2022-11-28T09:26:19.484Z,101898.84
2022-11-28T09:28:47.279Z,101896.28
2022-11-28T09:31:16.192Z,101890.91
2022-11-28T09:33:46.352Z,101881.50
2022-11-28T09:36:17.959Z,101880.13
2022-11-28T09:38:45.047Z,101882.72
2022-11-28T09:41:32.031Z,101882.22
2022-11-28T09:44:50.735Z,101883.03
2022-11-28T09:47:30.491Z,101890.56
2022-11-28T09:50:34.310Z,101888.38
2022-11-28T09:53:50.797Z,101883.25
2022-11-28T09:56:21.659Z,101881.84
2022-11-28T09:59:02.896Z,101875.19
2022-11-28T10:01:58.583Z,101877.06
2022-11-28T10:05:00.689Z,101865.16
2022-11-28T10:08:02.165Z,101863.09
2022-11-28T10:10:50.547Z,101869.81
2022-11-28T10:14:06.534Z,101860.69
2022-11-28T10:16:55.941Z,101859.91
2022-11-28T10:19:57.579Z,101849.50
2022-11-28T10:23:06.681Z,101849.38
2022-11-28T10:25:51.008Z,101849.50
2022-11-28T10:28:34.748Z,101837.75
2022-11-28T10:31:21.286Z,101845.84
2022-11-28T10:34:16.128Z,101833.59
2022-11-28T10:37:09.724Z,101827.81
2022-11-28T10:39:41.366Z,101833.97
2022-11-28T10:42:56.217Z,101822.31
2022-11-28T10:45:47.088Z,101816.81
2022-11-28T10:48:40.396Z,101820.69
2022-11-28T10:51:33.073Z,101818.47
2022-11-28T10:54:27.140Z,101811.19
2022-11-28T10:57:17.584Z,101819.00
2022-11-28T11:00:05.694Z,101808.88
2022-11-28T11:02:35.293Z,101798.00
2022-11-28T11:05:07.245Z,101801.44
2022-11-28T11:07:34.919Z,101798.91
2022-11-28T11:10:36.294Z,101795.13
2022-11-28T11:13:30.266Z,101798.63
2022-11-28T11:16:04.020Z,101792.28
2022-11-28T11:18:43.280Z,101792.44
2022-11-28T11:21:23.525Z,101793.47
2022-11-28T11:24:15.109Z,101801.59
2022-11-28T11:26:46.050Z,101797.94
2022-11-28T11:29:37.274Z,101789.41
2022-11-28T11:32:09.530Z,101799.16
2022-11-28T11:34:44.932Z,101787.69
2022-11-28T11:37:37.712Z,101798.06
2022-11-28T11:40:22.782Z,101795.31
2022-11-28T11:42:56.766Z,101794.41
2022-11-28T11:45:32.270Z,101793.47
2022-11-28T11:48:00.365Z,101785.22
2022-11-28T11:50:31.438Z,101799.41
2022-11-28T11:53:04.177Z,101802.38
2022-11-28T11:55:59.050Z,101794.28
2022-11-28T11:58:37.615Z,101776.56
2022-11-28T12:01:11.922Z,101785.84
2022-11-28T12:03:58.489Z,101785.72
2022-11-28T12:06:48.394Z,101783.22
2022-11-28T12:09:46.820Z,101773.38
2022-11-28T12:12:29.319Z,101773.50
2022-11-28T12:14:56.561Z,101772.66
2022-11-28T12:18:16.010Z,101764.34
2022-11-28T12:21:14.148Z,101764.06
2022-11-28T12:23:46.800Z,101773.75
2022-11-28T12:26:50.499Z,101762.91
2022-11-28T12:29:59.478Z,101753.84
2022-11-28T12:32:58.947Z,101766.53
2022-11-28T12:35:42.244Z,101758.63
2022-11-28T12:38:46.557Z,101759.22
2022-11-28T12:41:38.017Z,101768.44
2022-11-28T12:44:39.237Z,101755.03
2022-11-28T12:47:27.804Z,101759.31
2022-11-28T12:50:35.679Z,101760.81
2022-11-28T12:53:50.542Z,101758.34
2022-11-28T12:56:39.167Z,101753.09
2022-11-28T12:59:19.159Z,101758.03
2022-11-28T13:02:37.884Z,101751.78
2022-11-28T13:05:23.313Z,101746.50
2022-11-28T13:08:15.075Z,101752.06
2022-11-28T13:11:03.097Z,101745.31
2022-11-28T13:13:53.531Z,101743.88
2022-11-28T13:16:31.869Z,101750.41
2022-11-28T13:19:28.711Z,101743.03
2022-11-28T13:22:01.386Z,101753.84
2022-11-28T13:24:55.781Z,101750.22
2022-11-28T13:28:21.155Z,101743.09
2022-11-28T13:31:02.597Z,101729.25
2022-11-28T13:33:51.069Z,101734.78
2022-11-28T13:40:17.806Z,101732.38
2022-11-28T13:43:33.126Z,101736.91
2022-11-28T13:46:03.576Z,101722.34
2022-11-28T13:51:35.186Z,101729.63
2022-11-28T13:54:20.427Z,101733.66
2022-11-28T13:57:04.103Z,101738.84
2022-11-28T13:59:32.903Z,101731.09
2022-11-28T14:02:16.855Z,101724.06
2022-11-28T14:04:45.165Z,101725.50
2022-11-28T14:07:33.223Z,101723.84
2022-11-28T14:10:19.304Z,101734.47
2022-11-28T14:13:07.256Z,101733.88
2022-11-28T14:16:04.883Z,101732.34
2022-11-28T14:19:02.537Z,101732.88
2022-11-28T14:21:44.008Z,101722.50
2022-11-28T14:24:53.892Z,101730.38
2022-11-28T14:27:30.034Z,101726.69
2022-11-28T14:29:58.893Z,101735.22
2022-11-28T14:32:36.839Z,101728.38
2022-11-28T14:35:18.013Z,101727.69
2022-11-28T14:37:55.198Z,101727.34
2022-11-28T14:40:56.698Z,101728.22
2022-11-28T14:43:47.299Z,101724.56
2022-11-28T14:46:28.879Z,101725.81
2022-11-28T14:48:59.274Z,101717.81
2022-11-28T14:51:44.431Z,101727.69
2022-11-28T14:54:32.078Z,101715.50
2022-11-28T14:57:00.165Z,101723.22
2022-11-28T14:59:37.011Z,101719.78
2022-11-28T15:02:13.243Z,101713.31
2022-11-28T15:05:20.009Z,101717.09
2022-11-28T15:07:52.869Z,101712.88
2022-11-28T15:10:36.379Z,101716.69
2022-11-28T15:13:31.006Z,101724.69
2022-11-28T15:15:58.378Z,101712.34
2022-11-28T15:18:26.756Z,101715.66
2022-11-28T15:21:09.784Z,101723.97
2022-11-28T15:23:41.259Z,101720.50
2022-11-28T15:26:27.536Z,101714.09
2022-11-28T15:29:19.609Z,101719.94
2022-11-28T15:31:49.810Z,101716.34
2022-11-28T15:34:36.869Z,101728.81
2022-11-28T15:37:19.682Z,101734.38
2022-11-28T15:39:50.387Z,101722.06
2022-11-28T15:42:29.155Z,101723.88
2022-11-28T15:45:00.175Z,101741.63
2022-11-28T15:47:28.602Z,101726.94
2022-11-28T15:50:25.121Z,101726.94
2022-11-28T15:53:18.939Z,101717.78
2022-11-28T15:55:47.138Z,101727.59
2022-11-28T15:58:31.653Z,101725.91
2022-11-28T16:01:13.585Z,101723.63
2022-11-28T16:04:16.134Z,101724.53
2022-11-28T16:06:51.855Z,101728.38
2022-11-28T16:09:18.700Z,101726.38
2022-11-28T16:11:51.237Z,101727.19
2022-11-28T16:14:35.363Z,101728.59
2022-11-28T16:17:09.547Z,101726.56
2022-11-28T16:19:37.941Z,101716.44
2022-11-28T16:22:10.891Z,101725.22
2022-11-28T16:24:48.721Z,101722.72
2022-11-28T16:27:33.816Z,101717.34
2022-11-28T16:30:23.952Z,101727.31
2022-11-28T16:32:51.884Z,101721.97
2022-11-28T16:35:41.674Z,101723.69
2022-11-28T16:38:24.800Z,101719.47
2022-11-28T16:40:59.106Z,101735.47
2022-11-28T16:43:36.471Z,101729.25
2022-11-28T16:46:10.215Z,101725.31
2022-11-28T16:48:47.383Z,101724.38
2022-11-28T16:51:14.882Z,101726.56
2022-11-28T16:53:41.751Z,101719.56
2022-11-28T16:56:43.937Z,101726.56
2022-11-28T16:59:15.186Z,101728.75
2022-11-28T17:01:45.789Z,101723.50
2022-11-28T17:04:28.540Z,101728.09
2022-11-28T17:06:59.459Z,101727.97
2022-11-28T17:09:26.413Z,101732.84
2022-11-28T17:12:08.347Z,101727.72
2022-11-28T17:14:39.264Z,101716.88
2022-11-28T17:17:14.230Z,101715.44
2022-11-28T17:19:43.986Z,101726.63
2022-11-28T17:22:19.605Z,101719.44
2022-11-28T17:24:48.518Z,101715.25
2022-11-28T17:27:16.248Z,101719.41
2022-11-28T17:29:43.435Z,101714.72
2022-11-28T17:32:14.757Z,101714.81
2022-11-28T17:34:42.622Z,101708.84
2022-11-28T17:37:10.217Z,101710.09
2022-11-28T17:40:00.355Z,101715.47
2022-11-28T17:42:29.457Z,101715.94
2022-11-28T17:44:56.482Z,101715.34
2022-11-28T17:47:26.076Z,101715.97
2022-11-28T17:49:53.096Z,101718.56
2022-11-28T17:52:21.138Z,101715.06
2022-11-28T17:54:48.177Z,101706.97
2022-11-28T17:57:15.137Z,101718.63
2022-11-28T17:59:42.444Z,101731.63
2022-11-28T18:02:11.353Z,101707.28
2022-11-28T18:04:38.381Z,101715.88
2022-11-28T18:07:05.666Z,101719.53
2022-11-28T18:09:35.231Z,101732.13
2022-11-28T18:12:07.293Z,101724.69
2022-11-28T18:14:39.823Z,101721.00
2022-11-28T18:17:07.151Z,101719.34
2022-11-28T18:19:34.893Z,101721.03
2022-11-28T18:22:02.024Z,101721.94
2022-11-28T18:24:29.086Z,101707.81
2022-11-28T18:26:56.064Z,101710.13
2022-11-28T18:29:23.088Z,101711.97
2022-11-28T18:31:50.291Z,101715.94
2022-11-28T18:34:17.405Z,101724.06
2022-11-28T18:36:44.469Z,101710.53
2022-11-28T18:39:15.671Z,101713.19
2022-11-28T18:41:42.946Z,101716.84
2022-11-28T18:44:11.408Z,101709.78
2022-11-28T18:46:39.972Z,101716.19
2022-11-28T18:49:08.289Z,101714.69
2022-11-28T18:51:38.392Z,101720.59
2022-11-28T18:54:06.121Z,101704.41
2022-11-28T18:56:33.668Z,101709.25
2022-11-28T18:59:03.368Z,101709.97
2022-11-28T19:01:35.141Z,101716.13
2022-11-28T19:04:12.945Z,101719.00
2022-11-28T19:06:41.176Z,101716.72
2022-11-28T19:09:14.719Z,101714.19
2022-11-28T19:11:42.853Z,101719.16
2022-11-28T19:14:18.391Z,101725.59
2022-11-28T19:16:49.315Z,101721.34
2022-11-28T19:19:17.572Z,101722.34
2022-11-28T19:21:44.545Z,101720.56
2022-11-28T19:24:15.502Z,101727.44
2022-11-28T19:26:42.537Z,101713.97
2022-11-28T19:29:10.176Z,101716.00
2022-11-28T19:31:38.855Z,101712.94
2022-11-28T19:34:11.381Z,101717.53
2022-11-28T19:36:42.243Z,101709.78
2022-11-28T19:39:17.099Z,101709.19
2022-11-28T19:41:45.185Z,101719.63
2022-11-28T19:44:15.193Z,101706.44
2022-11-28T19:46:44.617Z,101712.88
2022-11-28T19:49:19.624Z,101711.03
2022-11-28T19:51:48.025Z,101719.81
2022-11-28T19:54:16.784Z,101706.97
2022-11-28T19:56:43.925Z,101707.56
2022-11-28T19:59:11.970Z,101711.28
2022-11-28T20:01:39.445Z,101709.59
2022-11-28T20:04:06.796Z,101713.31
2022-11-28T20:06:34.091Z,101706.53
2022-11-28T20:09:10.634Z,101713.53
2022-11-28T20:11:38.645Z,101707.53
2022-11-28T20:14:11.244Z,101710.16
2022-11-28T20:16:40.802Z,101712.59
2022-11-28T20:19:08.383Z,101717.84
2022-11-28T20:21:35.839Z,101721.03
2022-11-28T20:24:07.426Z,101703.44
2022-11-28T20:26:41.167Z,101717.09
2022-11-28T20:29:09.175Z,101720.06
2022-11-28T20:31:45.247Z,101713.31
2022-11-28T20:34:14.265Z,101723.38
2022-11-28T20:36:44.140Z,101705.63
2022-11-28T20:39:12.192Z,101718.63
2022-11-28T20:41:39.579Z,101717.28
2022-11-28T20:44:06.593Z,101718.06
2022-11-28T20:46:35.566Z,101720.38
2022-11-28T20:49:06.847Z,101717.72
2022-11-28T20:51:35.648Z,101716.09
2022-11-28T20:54:05.202Z,101722.69
2022-11-28T20:56:58.018Z,101716.97
2022-11-28T20:59:23.389Z,101732.75
2022-11-28T21:01:50.902Z,101730.50
2022-11-28T21:04:19.231Z,101720.59
2022-11-28T21:06:49.437Z,101721.16
2022-11-28T21:09:19.719Z,101732.63
2022-11-28T21:11:58.523Z,101721.44
2022-11-28T21:14:26.997Z,101719.88
2022-11-28T21:16:54.936Z,101740.94
2022-11-28T21:19:22.068Z,101732.34
2022-11-28T21:21:50.599Z,101729.00
2022-11-28T21:24:20.114Z,101731.59
2022-11-28T21:26:53.429Z,101731.59
2022-11-28T21:29:26.054Z,101734.03
2022-11-28T21:31:54.195Z,101726.00
2022-11-28T21:34:22.585Z,101729.56
2022-11-28T21:36:49.634Z,101742.03
2022-11-28T21:39:20.689Z,101732.44
2022-11-28T21:41:48.396Z,101738.59
2022-11-28T21:44:15.494Z,101727.63
2022-11-28T21:46:45.066Z,101739.72
2022-11-28T21:49:17.221Z,101736.22
2022-11-28T21:51:46.584Z,101740.59
2022-11-28T21:54:13.876Z,101732.03
2022-11-28T21:56:41.003Z,101728.59
2022-11-28T21:59:10.525Z,101735.75
2022-11-28T22:01:37.739Z,101723.81
2022-11-28T22:04:09.726Z,101726.19
2022-11-28T22:06:39.499Z,101720.44
2022-11-28T22:09:09.911Z,101712.69
2022-11-28T22:11:38.331Z,101712.28
2022-11-28T22:14:05.586Z,101726.34
2022-11-28T22:16:32.961Z,101718.50
2022-11-28T22:19:01.369Z,101716.94
2022-11-28T22:24:18.212Z,101714.09
2022-11-28T22:26:45.244Z,101733.31
2022-11-28T22:29:12.285Z,101720.75
2022-11-28T22:31:39.333Z,101712.75
2022-11-28T22:34:09.926Z,101708.41
2022-11-28T22:36:39.113Z,101712.28
2022-11-28T22:39:06.461Z,101718.63
2022-11-28T22:41:33.504Z,101705.88
2022-11-28T22:44:02.247Z,101719.28
2022-11-28T22:46:32.236Z,101714.31
2022-11-28T22:49:02.995Z,101720.66
2022-11-28T22:51:31.267Z,101714.91
2022-11-28T22:54:04.238Z,101721.94
2022-11-28T22:56:33.709Z,101716.34
2022-11-28T22:59:01.286Z,101719.91
2022-11-28T23:01:31.340Z,101712.97
2022-11-28T23:03:59.471Z,101711.94
2022-11-28T23:06:30.110Z,101706.63
2022-11-28T23:08:59.500Z,101714.50
2022-11-28T23:11:32.869Z,101703.50
2022-11-28T23:14:01.676Z,101710.94
2022-11-28T23:16:37.224Z,101707.78
2022-11-28T23:19:08.444Z,101711.13
2022-11-28T23:21:38.180Z,101718.66
2022-11-28T23:24:07.311Z,101711.59
2022-11-28T23:26:36.900Z,101712.75
2022-11-28T23:29:05.560Z,101723.84
2022-11-28T23:31:35.038Z,101715.84
2022-11-28T23:34:04.984Z,101712.94
2022-11-28T23:36:42.351Z,101714.91
2022-11-28T23:39:16.549Z,101700.06
2022-11-28T23:41:44.348Z,101712.91
2022-11-28T23:44:12.967Z,101710.63
2022-11-28T23:46:41.308Z,101708.41
2022-11-28T23:49:09.243Z,101715.13
2022-11-28T23:51:37.119Z,101701.28
2022-11-28T23:54:06.815Z,101699.22
2022-11-28T23:56:36.526Z,101704.44
2022-11-28T23:59:06.958Z,101707.09
